Time;durP1;ratioP1;P1;durP2;ratioP2;P2;SDS_P1;SDS_P2;PMS_P1;PMS_P2;Temp;Humidity;BMP_temperature;BMP_pressure;BME280_temperature;BME280_humidity;BME280_pressure;Samples;Min_cycle;Max_cycle;Signal;HPM_P1;HPM_P2
2022/08/04 00:00:52;;;;;;;2.10;1.90;;;24.90;24.70;;;;;;10447884;28;20239;-81
2022/08/04 00:06:00;;;;;;;2.17;1.67;;;24.90;25.40;;;;;;10444408;28;20225;-82
2022/08/04 00:11:07;;;;;;;1.90;1.80;;;24.70;25.70;;;;;;10448721;28;20700;-81
2022/08/04 00:16:18;;;;;;;2.20;2.00;;;24.70;25.60;;;;;;10451032;28;20217;-82
2022/08/04 00:21:24;;;;;;;1.87;1.77;;;24.60;25.30;;;;;;10448655;28;20225;-80
2022/08/04 00:26:29;;;;;;;2.00;1.90;;;24.50;25.60;;;;;;10444921;28;20593;-81
2022/08/04 00:31:33;;;;;;;2.50;1.90;;;24.30;25.80;;;;;;10451621;28;20233;-82
2022/08/04 00:36:58;;;;;;;2.13;2.03;;;24.20;25.70;;;;;;10449427;28;20232;-81
2022/08/04 00:42:42;;;;;;;1.90;1.80;;;24.00;25.80;;;;;;10445140;28;20240;-81
2022/08/04 00:48:23;;;;;;;3.43;1.90;;;24.00;26.50;;;;;;10453386;28;20249;-80
2022/08/04 00:53:34;;;;;;;2.27;2.07;;;23.90;26.90;;;;;;10450855;28;20235;-81
2022/08/04 00:58:50;;;;;;;1.93;1.83;;;23.90;27.40;;;;;;10447042;28;20688;-82
2022/08/04 01:04:02;;;;;;;1.77;1.67;;;23.80;27.40;;;;;;10440640;28;20256;-81
2022/08/04 01:09:27;;;;;;;1.93;1.80;;;23.80;27.50;;;;;;10444958;28;20229;-82
2022/08/04 01:14:47;;;;;;;1.80;1.70;;;23.80;27.50;;;;;;10438891;28;20675;-81
2022/08/04 01:20:01;;;;;;;2.20;2.10;;;23.80;27.50;;;;;;10442189;28;20247;-81
2022/08/04 01:25:36;;;;;;;1.80;1.70;;;23.80;27.90;;;;;;10442388;28;20308;-81
2022/08/04 01:30:45;;;;;;;2.57;1.97;;;23.70;27.80;;;;;;10439084;28;20217;-80
2022/08/04 01:35:51;;;;;;;1.90;1.80;;;23.60;27.80;;;;;;10443626;28;20239;-82
2022/08/04 01:40:59;;;;;;;1.87;1.77;;;23.50;27.20;;;;;;10443183;28;21001;-82
2022/08/04 01:46:05;;;;;;;1.70;1.60;;;23.40;27.60;;;;;;10441551;28;20305;-82
2022/08/04 01:51:10;;;;;;;2.07;1.90;;;23.30;27.50;;;;;;10447201;28;20314;-80
2022/08/04 01:56:13;;;;;;;1.80;1.70;;;23.30;27.50;;;;;;10445890;28;20233;-81
2022/08/04 02:01:17;;;;;;;1.80;1.70;;;23.30;27.50;;;;;;10439595;28;20229;-80
2022/08/04 02:06:31;;;;;;;1.70;1.60;;;23.40;27.60;;;;;;10441131;28;20229;-81
2022/08/04 02:11:34;;;;;;;1.87;1.77;;;23.40;28.00;;;;;;10448181;28;20237;-81
2022/08/04 02:16:47;;;;;;;2.23;2.03;;;23.30;27.60;;;;;;10449760;28;20232;-81
2022/08/04 02:22:02;;;;;;;2.10;2.00;;;23.30;28.10;;;;;;10447432;28;20576;-81
2022/08/04 02:27:07;;;;;;;2.03;1.90;;;23.30;28.40;;;;;;10436109;28;20220;-81
2022/08/04 02:32:20;;;;;;;2.00;1.90;;;23.30;27.80;;;;;;10443090;28;20212;-80
2022/08/04 02:37:26;;;;;;;2.23;1.97;;;23.20;28.70;;;;;;10444939;28;20312;-81
2022/08/04 02:42:30;;;;;;;2.13;2.00;;;23.30;27.90;;;;;;10446682;28;20620;-80
2022/08/04 02:47:35;;;;;;;2.10;1.77;;;23.30;28.50;;;;;;10443466;28;20228;-82
2022/08/04 02:53:00;;;;;;;1.90;1.80;;;23.20;28.20;;;;;;10441821;28;20220;-81
2022/08/04 02:58:05;;;;;;;2.33;2.13;;;23.20;28.10;;;;;;10442906;28;20695;-80
2022/08/04 03:03:21;;;;;;;3.07;1.97;;;23.10;27.90;;;;;;10439374;28;20235;-81
2022/08/04 03:08:53;;;;;;;2.30;2.10;;;23.10;28.80;;;;;;10442592;28;20224;-80
2022/08/04 03:14:25;;;;;;;2.20;1.90;;;23.00;28.50;;;;;;10439918;28;20308;-82
2022/08/04 03:20:03;;;;;;;2.00;1.90;;;22.90;28.40;;;;;;10440499;28;20220;-80
2022/08/04 03:25:23;;;;;;;2.10;2.00;;;22.90;28.50;;;;;;10444991;28;20220;-81
2022/08/04 03:30:35;;;;;;;3.70;2.30;;;22.80;28.80;;;;;;10448727;28;20235;-80
2022/08/04 03:36:07;;;;;;;2.60;1.90;;;22.80;28.90;;;;;;10444794;28;20239;-80
2022/08/04 03:41:37;;;;;;;2.00;1.90;;;22.70;28.90;;;;;;10442216;28;20220;-81
2022/08/04 03:47:24;;;;;;;2.83;2.00;;;22.70;28.80;;;;;;10451134;28;20314;-82
2022/08/04 03:53:09;;;;;;;2.20;2.10;;;22.70;29.20;;;;;;10448703;28;20252;-81
2022/08/04 03:58:31;;;;;;;2.03;1.77;;;22.60;28.60;;;;;;10449278;28;20307;-81
2022/08/04 04:04:08;;;;;;;5.30;2.20;;;22.50;29.00;;;;;;10445268;28;20232;-82
2022/08/04 04:09:54;;;;;;;5.20;2.80;;;22.40;29.20;;;;;;10448699;28;20590;-82
2022/08/04 04:15:29;;;;;;;3.13;2.60;;;22.30;29.40;;;;;;10448526;28;20225;-82
2022/08/04 04:20:53;;;;;;;3.50;2.60;;;22.30;30.00;;;;;;10444355;28;20649;-81
2022/08/04 04:26:07;;;;;;;5.33;2.80;;;22.20;30.00;;;;;;10447745;28;20735;-81
2022/08/04 04:31:29;;;;;;;6.17;2.77;;;22.20;30.50;;;;;;10445496;28;20225;-81
2022/08/04 04:36:43;;;;;;;4.93;2.73;;;22.10;30.40;;;;;;10443935;28;20328;-82
2022/08/04 04:42:18;;;;;;;5.30;2.37;;;22.10;30.30;;;;;;10446040;28;20587;-81
2022/08/04 04:47:31;;;;;;;4.80;2.57;;;22.10;30.20;;;;;;10439799;28;20595;-82
2022/08/04 04:53:03;;;;;;;3.60;2.20;;;22.10;30.80;;;;;;10443741;28;20233;-82
2022/08/04 04:58:14;;;;;;;3.83;2.60;;;22.10;30.30;;;;;;10443750;28;20225;-82
2022/08/04 05:03:38;;;;;;;3.70;2.40;;;22.10;31.20;;;;;;10445752;28;20233;-81
2022/08/04 05:09:16;;;;;;;4.73;2.67;;;22.10;30.60;;;;;;10440583;28;20244;-83
2022/08/04 05:14:27;;;;;;;4.50;2.37;;;22.10;31.00;;;;;;10445648;28;20223;-80
2022/08/04 05:19:52;;;;;;;8.10;2.70;;;22.20;31.30;;;;;;10415201;28;20556;-80
2022/08/04 05:25:03;;;;;;;4.73;3.10;;;22.20;31.50;;;;;;10444314;28;20228;-77
2022/08/04 05:30:10;;;;;;;2.97;2.77;;;22.20;31.70;;;;;;10450435;28;20239;-79
2022/08/04 05:35:21;;;;;;;3.20;2.90;;;22.30;31.50;;;;;;10449714;28;21153;-79
2022/08/04 05:40:45;;;;;;;4.20;2.50;;;22.30;32.20;;;;;;10410166;28;20237;-78
2022/08/04 05:45:52;;;;;;;2.77;2.57;;;22.30;31.10;;;;;;10421356;28;20233;-78
2022/08/04 05:50:56;;;;;;;3.00;2.73;;;22.40;31.90;;;;;;10450525;28;20240;-76
2022/08/04 05:56:05;;;;;;;3.47;2.50;;;22.50;31.70;;;;;;10445829;28;20240;-76
2022/08/04 06:01:12;;;;;;;2.77;2.57;;;22.70;31.70;;;;;;10445702;28;20275;-76
2022/08/04 06:06:17;;;;;;;2.80;2.60;;;22.90;32.30;;;;;;10432515;28;20239;-76
2022/08/04 06:11:22;;;;;;;2.80;2.60;;;23.10;31.70;;;;;;10435549;28;20755;-76
2022/08/04 06:16:34;;;;;;;3.00;2.43;;;23.30;32.00;;;;;;10431587;28;20220;-76
2022/08/04 06:21:42;;;;;;;3.10;2.90;;;23.50;32.20;;;;;;10432861;28;20217;-76
2022/08/04 06:26:49;;;;;;;5.87;2.57;;;23.70;31.90;;;;;;10426648;28;20231;-76
2022/08/04 06:31:58;;;;;;;3.10;2.90;;;23.90;32.00;;;;;;10410771;28;20243;-76
2022/08/04 06:37:22;;;;;;;2.90;2.60;;;24.00;31.90;;;;;;10425182;28;20256;-76
2022/08/04 06:42:47;;;;;;;5.73;3.03;;;24.20;31.10;;;;;;10424416;28;20233;-75
2022/08/04 06:47:54;;;;;;;3.17;2.80;;;24.40;31.10;;;;;;10431624;28;20228;-76
2022/08/04 06:52:57;;;;;;;3.83;2.93;;;24.60;31.30;;;;;;10428676;28;20236;-76
2022/08/04 06:58:02;;;;;;;2.90;2.37;;;24.80;31.10;;;;;;10425399;28;20214;-76
2022/08/04 07:03:07;;;;;;;3.13;2.70;;;25.00;31.20;;;;;;10426594;28;20229;-76
2022/08/04 07:08:11;;;;;;;2.80;2.60;;;25.10;31.20;;;;;;10430440;28;20233;-76
2022/08/04 07:13:15;;;;;;;2.90;2.70;;;25.40;31.20;;;;;;10426671;28;20233;-76
2022/08/04 07:18:20;;;;;;;2.80;2.60;;;25.60;31.00;;;;;;10419907;28;20224;-77
2022/08/04 07:23:25;;;;;;;2.87;2.67;;;25.80;31.00;;;;;;10431802;28;20279;-76
2022/08/04 07:28:30;;;;;;;3.63;2.50;;;26.00;31.10;;;;;;10427754;28;20224;-77
2022/08/04 07:33:35;;;;;;;2.90;2.70;;;26.20;30.70;;;;;;10426161;28;20228;-77
2022/08/04 07:38:40;;;;;;;3.20;3.00;;;26.40;30.50;;;;;;10422534;28;20815;-76
2022/08/04 07:43:54;;;;;;;4.90;2.77;;;26.60;30.40;;;;;;10420800;28;20231;-78
2022/08/04 07:49:00;;;;;;;4.30;2.53;;;26.80;30.20;;;;;;10423274;28;20229;-78
2022/08/04 07:54:04;;;;;;;2.60;2.40;;;27.00;30.50;;;;;;10423288;28;20733;-77
2022/08/04 07:59:08;;;;;;;2.80;2.57;;;27.30;29.90;;;;;;10426207;28;20221;-78
2022/08/04 08:04:13;;;;;;;4.60;2.53;;;27.50;30.00;;;;;;10436404;28;20228;-77
2022/08/04 08:09:19;;;;;;;2.73;2.53;;;27.80;30.10;;;;;;10431304;28;20233;-77
2022/08/04 08:14:23;;;;;;;3.37;2.83;;;28.10;29.80;;;;;;10443552;28;20818;-77
2022/08/04 08:19:28;;;;;;;2.87;2.67;;;28.30;29.50;;;;;;10439186;28;20632;-77
2022/08/04 08:24:35;;;;;;;2.70;2.50;;;28.60;29.40;;;;;;10443286;28;20225;-78
2022/08/04 08:29:40;;;;;;;2.93;2.43;;;28.90;29.10;;;;;;10448002;28;20221;-81
2022/08/04 08:34:45;;;;;;;2.57;2.43;;;29.30;28.90;;;;;;10449862;28;20229;-78
2022/08/04 08:39:55;;;;;;;2.77;2.67;;;29.60;28.50;;;;;;10444350;28;20231;-80
2022/08/04 08:45:34;;;;;;;2.87;2.67;;;29.90;27.90;;;;;;10449206;28;20221;-79
2022/08/04 08:51:30;;;;;;;3.00;2.70;;;30.20;28.00;;;;;;10444336;28;20237;-79
2022/08/04 08:56:44;;;;;;;2.80;2.60;;;30.50;27.70;;;;;;10428530;28;20229;-79
2022/08/04 09:02:02;;;;;;;2.37;2.27;;;30.80;26.60;;;;;;10448888;28;20320;-79
2022/08/04 09:07:27;;;;;;;2.70;2.40;;;31.10;26.30;;;;;;10452798;28;20259;-79
2022/08/04 09:12:40;;;;;;;2.30;2.20;;;31.30;26.20;;;;;;10441882;28;20229;-78
2022/08/04 09:17:57;;;;;;;2.20;2.10;;;31.60;25.10;;;;;;10433266;28;20234;-78
2022/08/04 09:23:08;;;;;;;2.97;2.33;;;31.90;24.90;;;;;;10437505;28;20229;-80
2022/08/04 09:28:20;;;;;;;2.43;2.33;;;32.20;24.40;;;;;;10430745;28;20236;-79
2022/08/04 09:33:52;;;;;;;2.50;2.30;;;32.40;23.80;;;;;;10432382;28;20225;-81
2022/08/04 09:39:05;;;;;;;2.60;2.50;;;32.70;23.10;;;;;;10436773;28;20353;-82
2022/08/04 09:44:21;;;;;;;2.60;2.40;;;32.90;22.60;;;;;;10432352;28;20216;-80
2022/08/04 09:49:53;;;;;;;2.47;2.37;;;33.10;22.70;;;;;;10433816;28;20225;-79
2022/08/04 09:55:09;;;;;;;2.33;2.23;;;33.40;22.10;;;;;;10426936;28;20232;-81
2022/08/04 10:00:15;;;;;;;2.30;2.10;;;33.60;22.30;;;;;;10427158;28;20225;-79
2022/08/04 10:05:25;;;;;;;2.10;2.00;;;33.80;21.80;;;;;;10426542;28;20311;-79
2022/08/04 10:10:36;;;;;;;2.10;2.00;;;34.00;21.00;;;;;;10425767;28;20244;-80
2022/08/04 10:15:52;;;;;;;2.30;2.10;;;34.20;20.70;;;;;;10429363;28;20229;-79
2022/08/04 10:21:04;;;;;;;2.07;1.97;;;34.30;20.30;;;;;;10429466;28;20276;-81
2022/08/04 10:26:31;;;;;;;2.20;2.10;;;34.40;19.50;;;;;;10428613;28;20290;-80
2022/08/04 10:31:46;;;;;;;2.00;1.90;;;34.50;20.00;;;;;;10434522;28;20296;-79
2022/08/04 10:36:57;;;;;;;2.30;2.20;;;34.60;19.60;;;;;;10447165;28;20239;-80
2022/08/04 10:42:12;;;;;;;2.00;1.90;;;34.60;18.70;;;;;;10434750;28;20220;-76
2022/08/04 10:47:22;;;;;;;2.10;1.90;;;34.80;18.50;;;;;;10425981;28;20705;-76
2022/08/04 10:52:34;;;;;;;2.00;1.90;;;34.90;18.60;;;;;;10432697;28;20234;-79
2022/08/04 10:57:42;;;;;;;1.83;1.73;;;35.00;17.70;;;;;;10447334;28;20229;-78
2022/08/04 11:02:58;;;;;;;1.80;1.70;;;35.10;17.50;;;;;;10449668;28;20255;-78
2022/08/04 11:08:05;;;;;;;1.83;1.73;;;35.20;17.80;;;;;;10436778;28;20271;-78
2022/08/04 11:13:17;;;;;;;2.00;1.90;;;35.30;17.20;;;;;;10432308;28;20268;-78
2022/08/04 11:18:51;;;;;;;2.17;1.80;;;35.50;17.50;;;;;;10459259;28;20237;-78
2022/08/04 11:24:01;;;;;;;1.90;1.80;;;35.50;16.00;;;;;;10444949;28;20229;-77
2022/08/04 11:29:13;;;;;;;2.03;1.93;;;35.60;16.10;;;;;;10445469;28;20231;-75
2022/08/04 11:34:21;;;;;;;2.00;1.90;;;35.60;15.80;;;;;;10438976;28;21055;-76
2022/08/04 11:39:29;;;;;;;2.00;1.90;;;35.70;16.30;;;;;;10446290;28;20241;-77
2022/08/04 11:44:43;;;;;;;2.03;1.93;;;35.80;16.10;;;;;;10453743;28;20250;-79
2022/08/04 11:49:55;;;;;;;2.00;1.90;;;35.90;16.20;;;;;;10437456;28;20578;-78
2022/08/04 11:55:05;;;;;;;2.03;1.90;;;36.00;15.80;;;;;;10448274;28;20233;-78
2022/08/04 12:00:12;;;;;;;2.13;2.03;;;36.10;15.60;;;;;;10447481;28;20224;-78
2022/08/04 12:05:20;;;;;;;1.97;1.87;;;36.10;15.60;;;;;;10437677;28;20235;-78
2022/08/04 12:10:47;;;;;;;2.30;2.10;;;36.10;15.00;;;;;;10435435;28;20260;-77
2022/08/04 12:16:01;;;;;;;2.00;1.90;;;36.10;14.80;;;;;;10437787;28;20627;-78
2022/08/04 12:21:08;;;;;;;2.10;2.00;;;36.10;14.60;;;;;;10436195;28;20220;-77
2022/08/04 12:26:20;;;;;;;2.20;2.10;;;36.10;14.60;;;;;;10434989;28;20229;-77
2022/08/04 12:31:27;;;;;;;2.20;2.10;;;36.10;14.80;;;;;;10434962;28;20236;-76
2022/08/04 12:36:39;;;;;;;2.10;2.00;;;36.10;14.60;;;;;;10431070;28;20900;-76
2022/08/04 12:41:52;;;;;;;2.10;2.00;;;36.20;14.50;;;;;;10437018;28;20250;-78
2022/08/04 12:46:57;;;;;;;2.20;2.10;;;36.20;14.00;;;;;;10442696;28;20242;-78
2022/08/04 12:52:22;;;;;;;2.00;1.90;;;36.20;14.80;;;;;;10416837;28;20728;-78
2022/08/04 12:57:47;;;;;;;2.23;2.00;;;36.30;14.60;;;;;;10430148;28;20233;-79
2022/08/04 13:02:52;;;;;;;2.20;2.10;;;36.40;14.10;;;;;;10443794;28;20598;-78
2022/08/04 13:07:58;;;;;;;2.00;1.90;;;36.40;14.00;;;;;;10438121;28;20225;-78
2022/08/04 13:13:01;;;;;;;1.80;1.70;;;36.50;13.90;;;;;;10434827;28;20586;-78
2022/08/04 13:18:08;;;;;;;2.20;2.00;;;36.50;13.90;;;;;;10438016;28;20217;-79
2022/08/04 13:23:19;;;;;;;2.10;1.80;;;36.60;13.90;;;;;;10430918;28;20356;-78
2022/08/04 13:28:26;;;;;;;1.97;1.87;;;36.70;14.00;;;;;;10435227;28;20262;-78
2022/08/04 13:33:33;;;;;;;2.20;2.00;;;36.80;14.00;;;;;;10437421;28;20232;-77
2022/08/04 13:38:45;;;;;;;1.87;1.77;;;36.80;14.00;;;;;;10446563;28;20220;-78
2022/08/04 13:43:50;;;;;;;2.37;1.90;;;36.90;13.60;;;;;;10434064;28;20256;-78
2022/08/04 13:49:18;;;;;;;2.00;1.90;;;36.90;13.80;;;;;;10441745;28;20259;-79
2022/08/04 13:54:46;;;;;;;2.23;2.10;;;37.00;13.30;;;;;;10428598;28;20237;-79
2022/08/04 14:00:01;;;;;;;2.00;1.90;;;37.00;12.90;;;;;;10441761;28;20282;-79
2022/08/04 14:05:08;;;;;;;1.90;1.80;;;37.00;13.10;;;;;;10430208;28;20228;-77
2022/08/04 14:10:23;;;;;;;2.10;2.00;;;37.00;12.60;;;;;;10432604;28;20774;-77
2022/08/04 14:15:32;;;;;;;2.10;1.90;;;37.00;12.40;;;;;;10435299;28;20233;-77
2022/08/04 14:21:04;;;;;;;2.00;1.90;;;37.10;12.10;;;;;;10433808;28;20251;-76
2022/08/04 14:26:17;;;;;;;2.20;1.70;;;37.20;11.50;;;;;;10430252;28;20231;-77
2022/08/04 14:31:22;;;;;;;1.80;1.70;;;37.20;12.30;;;;;;10435906;28;20250;-77
2022/08/04 14:36:39;;;;;;;1.77;1.67;;;37.30;12.10;;;;;;10434723;28;20245;-77
2022/08/04 14:42:04;;;;;;;1.87;1.77;;;37.30;11.10;;;;;;10433977;28;20220;-77
2022/08/04 14:47:08;;;;;;;1.70;1.60;;;37.30;11.50;;;;;;10431688;28;20259;-77
2022/08/04 14:52:23;;;;;;;1.77;1.70;;;37.30;12.50;;;;;;10432365;28;20286;-76
2022/08/04 14:57:28;;;;;;;2.13;1.93;;;37.40;10.40;;;;;;10432882;28;20286;-78
2022/08/04 15:02:34;;;;;;;1.77;1.67;;;37.40;10.80;;;;;;10435368;28;20236;-78
2022/08/04 15:07:38;;;;;;;2.53;2.10;;;37.40;11.10;;;;;;10437354;28;20240;-78
2022/08/04 15:12:44;;;;;;;1.80;1.70;;;37.30;11.20;;;;;;10436186;28;20286;-78
2022/08/04 15:17:47;;;;;;;1.80;1.70;;;37.40;10.80;;;;;;10431716;28;20224;-78
2022/08/04 15:22:50;;;;;;;1.90;1.80;;;37.40;10.90;;;;;;10433592;28;20274;-77
2022/08/04 15:27:56;;;;;;;2.20;1.70;;;37.40;10.90;;;;;;10428053;28;20236;-77
2022/08/04 15:33:02;;;;;;;1.77;1.67;;;37.50;10.50;;;;;;10428707;28;20949;-78
2022/08/04 15:38:12;;;;;;;1.90;1.80;;;37.50;10.40;;;;;;10431834;28;20678;-77
2022/08/04 15:43:42;;;;;;;1.67;1.57;;;37.60;10.20;;;;;;10444064;28;20605;-78
2022/08/04 15:48:45;;;;;;;2.20;1.80;;;37.60;10.10;;;;;;10443853;28;20221;-77
2022/08/04 15:54:24;;;;;;;2.10;2.00;;;37.70;10.90;;;;;;10441832;28;20727;-77
2022/08/04 16:00:03;;;;;;;1.80;1.70;;;37.70;10.20;;;;;;10440921;28;20223;-77
2022/08/04 16:05:33;;;;;;;2.33;2.07;;;37.80;10.50;;;;;;10436222;28;20233;-77
2022/08/04 16:10:38;;;;;;;1.90;1.80;;;37.70;9.90;;;;;;10430815;28;20233;-77
2022/08/04 16:15:52;;;;;;;1.93;1.83;;;37.70;10.50;;;;;;10430446;28;20244;-77
2022/08/04 16:20:57;;;;;;;2.30;2.10;;;37.70;10.20;;;;;;10434985;28;20227;-77
2022/08/04 16:26:00;;;;;;;4.63;2.03;;;37.70;10.50;;;;;;10434434;28;20228;-76
2022/08/04 16:31:07;;;;;;;1.97;1.87;;;37.70;10.40;;;;;;10434501;28;20559;-77
2022/08/04 16:36:15;;;;;;;2.08;1.90;;;37.80;10.00;;;;;;10435539;28;20601;-76
2022/08/04 16:41:38;;;;;;;1.83;1.73;;;37.80;10.00;;;;;;10435206;28;20252;-77
2022/08/04 16:46:43;;;;;;;2.07;1.87;;;37.80;10.00;;;;;;10434882;28;20245;-76
2022/08/04 16:52:08;;;;;;;1.93;1.83;;;37.80;9.90;;;;;;10436131;28;20253;-76
2022/08/04 16:57:15;;;;;;;1.80;1.70;;;37.80;10.00;;;;;;10433665;28;20225;-77
2022/08/04 17:02:24;;;;;;;1.70;1.60;;;37.90;10.20;;;;;;10433918;28;20225;-76
2022/08/04 17:07:28;;;;;;;1.83;1.73;;;37.90;9.60;;;;;;10436354;28;20243;-77
2022/08/04 17:12:32;;;;;;;1.73;1.63;;;37.90;10.20;;;;;;10433838;28;20229;-77
2022/08/04 17:17:36;;;;;;;1.80;1.70;;;37.90;10.00;;;;;;10437282;28;20230;-77
2022/08/04 17:23:32;;;;;;;2.03;1.77;;;37.90;9.90;;;;;;10435181;28;20234;-77
2022/08/04 17:28:57;;;;;;;2.00;1.85;;;37.90;9.90;;;;;;10429414;28;20268;-76
2022/08/04 17:34:09;;;;;;;1.92;1.83;;;37.90;10.30;;;;;;10437029;28;20232;-77
2022/08/04 17:39:23;;;;;;;1.83;1.73;;;37.90;10.70;;;;;;10436057;28;20733;-77
2022/08/04 17:44:35;;;;;;;1.90;1.70;;;37.80;10.50;;;;;;10434636;28;20237;-78
2022/08/04 17:49:40;;;;;;;1.90;1.80;;;37.80;10.20;;;;;;10433382;28;20271;-78
2022/08/04 17:55:00;;;;;;;1.80;1.70;;;37.70;10.50;;;;;;10434269;28;20252;-76
2022/08/04 18:00:06;;;;;;;1.70;1.60;;;37.60;12.00;;;;;;10431399;28;20225;-77
2022/08/04 18:05:30;;;;;;;1.87;1.77;;;37.50;12.10;;;;;;10433845;28;20233;-77
2022/08/04 18:10:54;;;;;;;2.10;2.00;;;37.40;13.60;;;;;;10430497;28;20220;-77
2022/08/04 18:16:02;;;;;;;1.60;1.50;;;37.20;13.20;;;;;;10425849;28;20661;-77
2022/08/04 18:21:07;;;;;;;1.90;1.80;;;37.00;13.80;;;;;;10428206;28;20585;-76
2022/08/04 18:26:12;;;;;;;1.70;1.60;;;36.80;13.80;;;;;;10432366;28;20523;-76
2022/08/04 18:31:15;;;;;;;1.90;1.80;;;36.60;14.00;;;;;;10431713;28;20241;-77
2022/08/04 18:36:20;;;;;;;2.10;2.00;;;36.40;13.80;;;;;;10430497;28;20232;-76
2022/08/04 18:41:40;;;;;;;2.13;2.00;;;36.30;13.80;;;;;;10432893;28;20228;-77
2022/08/04 18:47:04;;;;;;;2.20;2.10;;;36.10;13.70;;;;;;10434294;28;20244;-77
2022/08/04 18:52:23;;;;;;;2.37;2.03;;;35.80;13.80;;;;;;10433252;28;20685;-77
2022/08/04 18:57:29;;;;;;;2.40;2.20;;;35.60;14.50;;;;;;10431116;28;20244;-77
2022/08/04 19:02:52;;;;;;;3.07;2.30;;;35.40;14.50;;;;;;10429398;28;20840;-76
2022/08/04 19:07:58;;;;;;;2.70;2.50;;;35.30;14.60;;;;;;10421016;28;20822;-76
2022/08/04 19:13:21;;;;;;;3.97;2.70;;;35.10;15.20;;;;;;10425099;28;20234;-76
2022/08/04 19:18:28;;;;;;;2.67;2.30;;;34.90;15.00;;;;;;10431527;28;20224;-77
2022/08/04 19:23:33;;;;;;;2.20;2.10;;;34.70;15.10;;;;;;10434434;28;20233;-76
2022/08/04 19:28:56;;;;;;;2.33;2.13;;;34.50;15.70;;;;;;10420239;28;20230;-76
2022/08/04 19:34:01;;;;;;;2.20;2.00;;;34.40;16.20;;;;;;10423379;28;20238;-76
2022/08/04 19:39:11;;;;;;;3.30;2.43;;;34.20;16.00;;;;;;10421746;28;20233;-77
2022/08/04 19:44:15;;;;;;;3.50;3.30;;;34.10;16.10;;;;;;10419043;28;21039;-76
2022/08/04 19:49:19;;;;;;;4.37;2.80;;;33.80;16.00;;;;;;10430102;28;20291;-77
2022/08/04 19:54:44;;;;;;;3.53;3.23;;;33.50;16.00;;;;;;10432772;28;20225;-76
2022/08/04 19:59:51;;;;;;;3.17;2.97;;;33.30;16.60;;;;;;10435174;28;20232;-75
2022/08/04 20:04:57;;;;;;;3.03;2.83;;;33.00;16.70;;;;;;10438120;28;20221;-76
2022/08/04 20:10:01;;;;;;;3.00;2.80;;;32.90;17.10;;;;;;10435469;28;20344;-76
2022/08/04 20:15:07;;;;;;;3.43;2.57;;;32.70;17.50;;;;;;10435528;28;20309;-75
2022/08/04 20:20:14;;;;;;;2.60;2.40;;;32.60;17.60;;;;;;10431652;28;20224;-76
2022/08/04 20:25:19;;;;;;;3.97;2.60;;;32.50;17.50;;;;;;10433124;28;20244;-76
2022/08/04 20:30:39;;;;;;;2.57;2.37;;;32.20;18.10;;;;;;10431073;28;20225;-76
2022/08/04 20:35:42;;;;;;;2.70;2.50;;;32.00;18.00;;;;;;10435490;28;20783;-75
2022/08/04 20:41:08;;;;;;;2.93;2.70;;;31.90;18.30;;;;;;10431809;28;20228;-75
2022/08/04 20:46:12;;;;;;;3.10;2.80;;;31.70;18.70;;;;;;10429027;28;20225;-76
2022/08/04 20:51:30;;;;;;;3.33;2.73;;;31.60;18.50;;;;;;10430192;28;20298;-75
2022/08/04 20:56:43;;;;;;;4.43;3.00;;;31.40;18.70;;;;;;10424863;28;20709;-75
2022/08/04 21:01:53;;;;;;;3.40;2.90;;;31.30;19.00;;;;;;10427019;28;20621;-75
2022/08/04 21:06:56;;;;;;;2.87;2.67;;;31.10;18.80;;;;;;10425230;28;20629;-75
2022/08/04 21:12:01;;;;;;;3.20;2.77;;;30.90;19.00;;;;;;10426186;28;20229;-75
2022/08/04 21:17:05;;;;;;;2.93;2.63;;;30.80;19.80;;;;;;10428910;28;20229;-75
2022/08/04 21:22:10;;;;;;;4.70;2.80;;;30.70;19.80;;;;;;10428999;28;20629;-75
2022/08/04 21:27:14;;;;;;;2.57;2.37;;;30.60;20.60;;;;;;10430733;28;20233;-75
2022/08/04 21:32:17;;;;;;;2.40;2.30;;;30.40;20.50;;;;;;10430485;28;20239;-75
2022/08/04 21:37:29;;;;;;;3.63;2.70;;;30.30;20.30;;;;;;10430052;28;20287;-75
2022/08/04 21:42:53;;;;;;;2.83;2.63;;;30.20;20.60;;;;;;10432788;28;20220;-75
2022/08/04 21:47:57;;;;;;;2.80;2.60;;;30.10;21.20;;;;;;10432704;28;20221;-75
2022/08/04 21:53:00;;;;;;;2.80;2.60;;;30.10;21.20;;;;;;10430244;28;20233;-75
2022/08/04 21:58:04;;;;;;;2.70;2.50;;;30.00;21.10;;;;;;10432162;28;20221;-75
2022/08/04 22:03:10;;;;;;;2.77;2.57;;;29.90;21.10;;;;;;10430282;28;20315;-75
2022/08/04 22:08:33;;;;;;;2.80;2.50;;;29.80;21.00;;;;;;10430115;28;20574;-75
2022/08/04 22:13:37;;;;;;;2.80;2.60;;;29.70;20.90;;;;;;10426581;28;20599;-75
2022/08/04 22:19:02;;;;;;;2.80;2.60;;;29.60;21.90;;;;;;10416738;28;20221;-76
2022/08/04 22:24:06;;;;;;;2.63;2.43;;;29.50;21.70;;;;;;10420064;28;20235;-78
2022/08/04 22:29:17;;;;;;;3.03;2.27;;;29.40;21.80;;;;;;10421782;28;20258;-77
2022/08/04 22:34:20;;;;;;;2.70;2.50;;;29.30;22.00;;;;;;10422802;28;20252;-76
2022/08/04 22:39:26;;;;;;;2.90;2.53;;;29.30;21.90;;;;;;10421892;28;20240;-78
2022/08/04 22:44:31;;;;;;;4.80;2.80;;;29.30;21.80;;;;;;10421980;28;20239;-78
2022/08/04 22:49:36;;;;;;;2.40;2.27;;;29.20;22.30;;;;;;10418245;28;20233;-77
2022/08/04 22:54:40;;;;;;;2.80;2.60;;;29.10;22.20;;;;;;10425339;28;20256;-77
2022/08/04 22:59:44;;;;;;;2.67;2.47;;;29.00;22.20;;;;;;10426694;28;20221;-76
2022/08/04 23:04:51;;;;;;;2.60;2.40;;;28.90;22.80;;;;;;10426961;28;20608;-75
2022/08/04 23:09:56;;;;;;;3.60;2.30;;;28.70;22.50;;;;;;10428841;28;20247;-75
2022/08/04 23:15:01;;;;;;;2.43;2.33;;;28.60;22.60;;;;;;10431056;28;20237;-75
2022/08/04 23:20:05;;;;;;;2.90;2.70;;;28.50;23.20;;;;;;10431003;28;20217;-75
2022/08/04 23:25:25;;;;;;;3.00;2.77;;;28.40;23.00;;;;;;10425685;28;20290;-76
2022/08/04 23:30:50;;;;;;;3.03;2.83;;;28.30;23.10;;;;;;10430783;28;20639;-75
2022/08/04 23:35:56;;;;;;;2.60;2.40;;;28.20;23.70;;;;;;10432509;28;20237;-76
2022/08/04 23:41:05;;;;;;;2.67;2.47;;;28.00;23.50;;;;;;10435302;28;20226;-76
2022/08/04 23:46:16;;;;;;;2.70;2.50;;;27.90;24.30;;;;;;10431265;28;20221;-77
2022/08/04 23:51:22;;;;;;;2.70;2.50;;;27.80;24.20;;;;;;10430666;28;20232;-75
2022/08/04 23:56:26;;;;;;;3.00;2.73;;;27.80;24.20;;;;;;10431285;28;20232;-75
